createdAt,value
2019-04-20T00:02:19.331Z,6.90
2019-04-20T00:04:46.940Z,6.88
2019-04-20T00:07:14.300Z,6.77
2019-04-20T00:09:50.249Z,6.73
2019-04-20T00:12:19.046Z,6.66
2019-04-20T00:14:41.297Z,6.67
2019-04-20T00:17:07.660Z,6.63
2019-04-20T00:19:43.599Z,6.72
2019-04-20T00:22:10.111Z,6.75
2019-04-20T00:27:31.327Z,6.71
2019-04-20T00:29:56.113Z,6.66
2019-04-20T00:32:18.591Z,6.49
2019-04-20T00:34:39.046Z,6.35
2019-04-20T00:37:05.172Z,6.30
2019-04-20T00:39:32.232Z,6.33
2019-04-20T00:42:06.131Z,6.22
2019-04-20T00:44:34.128Z,6.17
2019-04-20T00:47:11.178Z,6.16
2019-04-20T00:49:43.260Z,6.03
2019-04-20T00:52:23.746Z,5.95
2019-04-20T00:54:24.179Z,5.94
2019-04-20T00:56:52.046Z,5.86
2019-04-20T00:59:31.733Z,5.85
2019-04-20T01:02:03.948Z,5.78
2019-04-20T01:04:38.832Z,5.76
2019-04-20T01:06:57.635Z,5.75
2019-04-20T01:09:14.158Z,5.72
2019-04-20T01:11:46.472Z,5.67
2019-04-20T01:14:14.092Z,5.70
2019-04-20T01:16:47.371Z,5.67
2019-04-20T01:19:07.697Z,5.66
2019-04-20T01:21:36.855Z,5.66
2019-04-20T01:24:07.941Z,5.48
2019-04-20T01:26:35.602Z,5.20
2019-04-20T01:29:13.563Z,5.08
2019-04-20T01:31:38.367Z,5.11
2019-04-20T01:34:09.504Z,5.06
2019-04-20T01:36:47.958Z,5.03
2019-04-20T01:39:07.550Z,4.86
2019-04-20T01:41:26.423Z,4.86
2019-04-20T01:43:54.375Z,4.77
2019-04-20T01:48:59.978Z,4.86
2019-04-20T01:51:30.505Z,4.83
2019-04-20T01:54:13.517Z,4.73
2019-04-20T01:56:37.399Z,4.72
2019-04-20T01:59:10.727Z,4.60
2019-04-20T02:01:27.180Z,4.51
2019-04-20T02:03:55.803Z,4.44
2019-04-20T02:06:24.972Z,4.44
2019-04-20T02:08:58.343Z,4.46
2019-04-20T02:11:26.004Z,4.45
2019-04-20T02:13:55.143Z,4.42
2019-04-20T02:16:26.427Z,4.36
2019-04-20T02:21:34.180Z,4.40
2019-04-20T02:23:53.077Z,4.29
2019-04-20T02:26:16.061Z,4.27
2019-04-20T02:29:12.225Z,4.28
2019-04-20T02:31:57.813Z,4.45
2019-04-20T02:41:23.625Z,4.17
2019-04-20T02:43:57.656Z,4.28
2019-04-20T02:46:10.596Z,4.16
2019-04-20T02:48:43.348Z,4.08
2019-04-20T02:51:08.999Z,4.13
2019-04-20T02:53:46.926Z,4.30
2019-04-20T02:56:29.686Z,4.34
2019-04-20T02:58:33.796Z,4.39
2019-04-20T03:00:55.187Z,4.26
2019-04-20T03:03:16.345Z,4.18
2019-04-20T03:05:40.604Z,4.06
2019-04-20T03:08:20.267Z,4.13
2019-04-20T03:13:18.541Z,4.30
2019-04-20T03:15:48.342Z,4.24
2019-04-20T03:18:14.586Z,4.21
2019-04-20T03:20:46.618Z,4.06
2019-04-20T03:28:47.063Z,3.95
2019-04-20T03:31:47.350Z,3.94
2019-04-20T03:34:15.660Z,3.99
2019-04-20T03:36:25.531Z,3.92
2019-04-20T03:38:41.669Z,3.93
2019-04-20T03:41:03.982Z,3.95
2019-04-20T03:43:20.494Z,3.87
2019-04-20T03:45:57.266Z,3.90
2019-04-20T03:48:38.133Z,4.01
2019-04-20T03:51:08.701Z,3.89
2019-04-20T03:53:34.312Z,3.89
2019-04-20T03:59:00.051Z,3.76
2019-04-20T04:01:43.396Z,3.73
2019-04-20T04:04:05.146Z,3.74
2019-04-20T04:06:19.833Z,3.77
2019-04-20T04:08:42.638Z,3.64
2019-04-20T04:11:21.000Z,3.44
2019-04-20T04:13:33.591Z,3.42
2019-04-20T04:16:06.707Z,3.34
2019-04-20T04:18:37.203Z,3.38
2019-04-20T04:21:03.913Z,3.32
2019-04-20T04:23:47.377Z,3.24
2019-04-20T04:26:15.007Z,3.24
2019-04-20T04:28:42.318Z,3.27
2019-04-20T04:31:12.794Z,3.43
2019-04-20T04:36:05.857Z,3.56
2019-04-20T04:38:42.494Z,3.48
2019-04-20T04:43:40.108Z,3.41
2019-04-20T04:45:49.025Z,3.44
2019-04-20T04:48:23.805Z,3.57
2019-04-20T04:50:53.823Z,3.59
2019-04-20T04:53:28.902Z,3.70
2019-04-20T04:55:52.402Z,3.80
2019-04-20T04:58:10.876Z,3.86
2019-04-20T05:00:40.729Z,3.89
2019-04-20T05:06:03.559Z,4.14
2019-04-20T05:08:21.275Z,4.30
2019-04-20T05:13:13.648Z,4.68
2019-04-20T05:15:57.069Z,4.71
2019-04-20T05:18:34.658Z,4.82
2019-04-20T05:20:58.882Z,4.75
2019-04-20T05:23:35.324Z,4.82
2019-04-20T05:26:14.087Z,4.91
2019-04-20T05:28:30.895Z,5.04
2019-04-20T05:30:53.745Z,5.13
2019-04-20T05:33:28.094Z,5.23
2019-04-20T05:39:02.525Z,5.59
2019-04-20T05:41:14.872Z,5.71
2019-04-20T05:46:18.508Z,6.03
2019-04-20T05:48:48.746Z,6.17
2019-04-20T05:53:45.752Z,6.50
2019-04-20T05:56:10.352Z,6.60
2019-04-20T05:58:38.672Z,6.73
2019-04-20T06:01:12.186Z,6.87
2019-04-20T06:03:38.388Z,7.10
2019-04-20T06:06:08.070Z,7.28
2019-04-20T06:08:45.324Z,7.47
2019-04-20T06:11:04.524Z,7.72
2019-04-20T06:16:07.331Z,8.19
2019-04-20T06:18:34.802Z,8.36
2019-04-20T06:21:13.653Z,8.59
2019-04-20T06:32:17.514Z,9.82
2019-04-20T06:34:48.977Z,10.32
2019-04-20T06:37:02.069Z,10.60
2019-04-20T06:44:32.028Z,11.35
2019-04-20T06:47:02.781Z,11.52
2019-04-20T06:52:24.378Z,11.94
2019-04-20T06:54:52.417Z,12.06
2019-04-20T06:57:19.642Z,12.24
2019-04-20T06:59:45.871Z,12.40
2019-04-20T07:12:11.380Z,13.31
2019-04-20T07:14:36.679Z,13.35
2019-04-20T07:17:27.372Z,13.47
2019-04-20T07:19:40.528Z,13.64
2019-04-20T07:22:25.362Z,13.69
2019-04-20T07:27:17.860Z,13.90
2019-04-20T07:29:54.931Z,14.08
2019-04-20T07:32:11.718Z,14.34
2019-04-20T07:34:47.461Z,14.26
2019-04-20T07:42:23.046Z,14.89
2019-04-20T07:44:55.224Z,15.03
2019-04-20T07:47:22.079Z,15.24
2019-04-20T07:49:45.675Z,15.25
2019-04-20T07:51:55.556Z,15.39
2019-04-20T07:54:50.815Z,15.51
2019-04-20T07:57:12.789Z,15.69
2019-04-20T08:04:47.106Z,16.21
2019-04-20T08:07:03.508Z,16.43
2019-04-20T08:09:35.012Z,16.52
2019-04-20T08:12:22.074Z,16.55
2019-04-20T08:14:46.753Z,16.57
2019-04-20T08:17:21.468Z,16.79
2019-04-20T08:19:43.918Z,17.00
2019-04-20T08:22:18.551Z,17.13
2019-04-20T08:24:34.496Z,17.47
2019-04-20T08:26:55.159Z,17.51
2019-04-20T08:35:05.124Z,18.26
2019-04-20T08:37:34.413Z,18.51
2019-04-20T08:40:06.823Z,18.52
2019-04-20T08:42:40.425Z,18.85
2019-04-20T08:45:03.653Z,18.88
2019-04-20T08:47:37.813Z,18.65
2019-04-20T08:55:10.490Z,19.02
2019-04-20T08:57:20.011Z,19.52
2019-04-20T08:59:50.657Z,20.04
2019-04-20T09:02:17.437Z,22.25
2019-04-20T09:04:52.874Z,22.44
2019-04-20T09:07:18.599Z,22.11
2019-04-20T09:10:10.036Z,24.92
2019-04-20T09:12:26.549Z,27.30
2019-04-20T09:17:24.443Z,27.28
2019-04-20T09:19:50.307Z,29.63
2019-04-20T09:22:28.085Z,26.15
2019-04-20T09:25:13.096Z,29.24
2019-04-20T09:30:06.172Z,27.19
2019-04-20T09:32:43.973Z,27.12
2019-04-20T09:35:22.202Z,31.04
2019-04-20T09:37:47.324Z,31.55
2019-04-20T09:40:21.612Z,30.47
2019-04-20T09:42:37.995Z,32.40
2019-04-20T09:45:08.280Z,30.30
2019-04-20T09:47:42.944Z,33.46
2019-04-20T09:50:21.380Z,34.25
2019-04-20T09:52:51.450Z,32.12
2019-04-20T09:55:16.292Z,32.25
2019-04-20T09:57:50.313Z,28.78
2019-04-20T10:02:34.982Z,30.56
2019-04-20T10:05:01.999Z,31.84
2019-04-20T10:10:15.955Z,34.00
2019-04-20T10:12:35.536Z,31.22
2019-04-20T10:15:11.635Z,33.00
2019-04-20T10:17:33.250Z,34.65
2019-04-20T10:20:02.553Z,34.39
2019-04-20T10:22:28.722Z,36.11
2019-04-20T10:24:57.277Z,36.05
2019-04-20T10:30:02.920Z,34.18
2019-04-20T10:32:36.262Z,35.58
2019-04-20T10:34:56.865Z,33.69
2019-04-20T10:37:25.012Z,34.49
2019-04-20T10:39:54.430Z,36.72
2019-04-20T10:42:21.884Z,37.51
2019-04-20T10:44:53.791Z,35.25
2019-04-20T10:47:21.171Z,34.58
2019-04-20T10:49:49.452Z,37.64
2019-04-20T10:52:17.923Z,38.27
2019-04-20T10:54:46.296Z,37.12
2019-04-20T10:57:15.497Z,37.53
2019-04-20T10:59:43.678Z,38.33
2019-04-20T11:02:12.088Z,38.74
2019-04-20T11:04:40.907Z,38.44
2019-04-20T11:07:08.331Z,38.81
2019-04-20T11:09:36.697Z,39.10
2019-04-20T11:12:06.349Z,37.88
2019-04-20T11:14:37.223Z,36.74
2019-04-20T11:17:02.638Z,37.83
2019-04-20T11:19:31.533Z,38.72
2019-04-20T11:21:58.688Z,37.95
2019-04-20T11:24:28.136Z,37.35
2019-04-20T11:29:31.893Z,35.72
2019-04-20T11:34:38.376Z,34.32
2019-04-20T11:37:03.297Z,36.36
2019-04-20T11:39:30.282Z,37.91
2019-04-20T11:41:59.480Z,34.52
2019-04-20T11:44:30.289Z,35.38
2019-04-20T11:49:33.361Z,36.13
2019-04-20T11:54:36.585Z,36.76
2019-04-20T11:57:04.159Z,38.66
2019-04-20T11:59:32.784Z,37.77
2019-04-20T12:02:05.513Z,37.47
2019-04-20T12:04:42.022Z,38.18
2019-04-20T12:07:02.948Z,38.99
2019-04-20T12:09:31.431Z,39.90
2019-04-20T12:12:11.888Z,38.48
2019-04-20T12:14:28.451Z,38.21
2019-04-20T12:16:57.620Z,38.50
2019-04-20T12:19:26.917Z,36.63
2019-04-20T12:21:54.128Z,40.04
2019-04-20T12:24:22.695Z,39.64
2019-04-20T12:26:51.101Z,39.49
2019-04-20T12:29:19.536Z,38.20
2019-04-20T12:31:51.058Z,39.58
2019-04-20T12:34:16.225Z,37.95
2019-04-20T12:39:19.297Z,37.76
2019-04-20T12:41:52.991Z,34.31
2019-04-20T12:44:15.570Z,37.25
2019-04-20T12:49:18.267Z,38.17
2019-04-20T12:51:53.962Z,37.48
2019-04-20T12:54:14.960Z,38.63
2019-04-20T12:56:44.554Z,35.64
2019-04-20T12:59:13.814Z,38.55
2019-04-20T13:01:41.510Z,38.41
2019-04-20T13:04:09.624Z,39.74
2019-04-20T13:09:16.677Z,39.66
2019-04-20T13:11:54.666Z,39.24
2019-04-20T13:17:22.056Z,38.34
2019-04-20T13:19:50.975Z,39.79
2019-04-20T13:22:19.032Z,38.30
2019-04-20T13:24:47.271Z,39.00
2019-04-20T13:27:15.027Z,39.49
2019-04-20T13:29:46.195Z,37.96
2019-04-20T13:32:11.840Z,35.49
2019-04-20T13:34:40.516Z,34.21
2019-04-20T13:37:08.928Z,38.08
2019-04-20T13:39:38.441Z,38.38
2019-04-20T13:42:12.054Z,36.59
2019-04-20T13:44:34.915Z,38.84
2019-04-20T13:47:03.092Z,38.44
2019-04-20T13:49:31.257Z,39.76
2019-04-20T13:51:59.544Z,39.48
2019-04-20T13:54:28.596Z,38.34
2019-04-20T13:56:56.611Z,39.80
2019-04-20T13:59:25.818Z,36.40
2019-04-20T14:07:03.694Z,34.13
2019-04-20T14:09:33.244Z,35.93
2019-04-20T14:12:11.785Z,35.85
2019-04-20T14:14:29.028Z,37.31
2019-04-20T14:16:57.121Z,37.98
2019-04-20T14:19:25.504Z,38.53
2019-04-20T14:24:28.890Z,37.98
2019-04-20T14:26:56.969Z,37.03
2019-04-20T14:29:25.219Z,36.22
2019-04-20T14:31:53.410Z,36.47
2019-04-20T14:34:22.696Z,37.34
2019-04-20T14:36:51.221Z,37.63
2019-04-20T14:39:20.407Z,31.24
2019-04-20T14:41:48.654Z,29.77
2019-04-20T14:44:16.353Z,34.56
2019-04-20T14:46:45.555Z,37.42
2019-04-20T14:49:14.607Z,37.11
2019-04-20T14:51:41.710Z,37.64
2019-04-20T14:54:09.974Z,34.31
2019-04-20T14:56:38.393Z,33.35
2019-04-20T15:04:39.079Z,33.34
2019-04-20T15:07:07.140Z,32.05
2019-04-20T15:09:37.536Z,35.30
2019-04-20T15:12:04.561Z,37.71
2019-04-20T15:14:32.437Z,38.35
2019-04-20T15:17:00.694Z,38.52
2019-04-20T15:25:00.198Z,38.07
2019-04-20T15:27:28.552Z,36.72
2019-04-20T15:29:58.113Z,37.32
2019-04-20T15:32:25.304Z,36.28
2019-04-20T15:34:55.002Z,37.80
2019-04-20T15:39:59.039Z,38.88
2019-04-20T15:42:27.615Z,37.67
2019-04-20T15:44:57.596Z,37.43
2019-04-20T15:47:25.719Z,38.77
2019-04-20T15:49:53.788Z,38.71
2019-04-20T15:52:25.933Z,39.16
2019-04-20T15:54:51.806Z,39.43
2019-04-20T15:57:23.277Z,35.49
2019-04-20T15:59:48.639Z,38.56
2019-04-20T16:04:56.486Z,38.55
2019-04-20T16:07:25.415Z,37.50
2019-04-20T16:09:52.292Z,35.42
2019-04-20T16:12:20.885Z,31.40
2019-04-20T16:14:49.385Z,29.91
2019-04-20T16:17:17.518Z,29.12
2019-04-20T16:19:52.223Z,27.81
2019-04-20T16:22:15.401Z,27.04
2019-04-20T16:27:37.912Z,26.16
2019-04-20T16:30:05.533Z,25.32
2019-04-20T16:32:34.398Z,24.99
2019-04-20T16:40:15.765Z,24.23
2019-04-20T16:42:45.469Z,23.91
2019-04-20T16:45:13.429Z,23.47
2019-04-20T16:47:42.373Z,22.54
2019-04-20T16:50:11.028Z,22.75
2019-04-20T16:52:39.137Z,22.70
2019-04-20T16:55:08.211Z,22.49
2019-04-20T16:57:35.800Z,22.16
2019-04-20T17:00:05.461Z,22.05
2019-04-20T17:05:09.205Z,21.59
2019-04-20T17:07:39.301Z,21.21
2019-04-20T17:10:07.490Z,20.98
2019-04-20T17:12:35.647Z,21.17
2019-04-20T17:17:37.989Z,20.54
2019-04-20T17:22:42.688Z,20.36
2019-04-20T17:25:12.297Z,20.08
2019-04-20T17:27:45.018Z,20.18
2019-04-20T17:30:21.910Z,20.17
2019-04-20T17:32:47.556Z,20.03
2019-04-20T17:35:28.247Z,19.81
2019-04-20T17:45:41.574Z,18.92
2019-04-20T17:48:08.829Z,18.74
2019-04-20T17:50:46.445Z,18.93
2019-04-20T17:53:08.974Z,19.01
2019-04-20T17:58:12.066Z,18.46
2019-04-20T18:00:54.799Z,18.10
2019-04-20T18:03:57.537Z,17.78
2019-04-20T18:06:15.092Z,17.63
2019-04-20T18:08:35.886Z,17.41
2019-04-20T18:10:58.588Z,17.40
2019-04-20T18:13:21.660Z,17.34
2019-04-20T18:15:59.005Z,17.18
2019-04-20T18:21:03.586Z,16.99
2019-04-20T18:26:28.763Z,16.76
2019-04-20T18:31:13.376Z,16.39
2019-04-20T18:33:40.504Z,16.07
2019-04-20T18:36:13.321Z,15.80
2019-04-20T18:41:20.989Z,15.42
2019-04-20T18:43:45.845Z,15.22
2019-04-20T18:46:26.121Z,15.10
2019-04-20T18:51:12.493Z,14.87
2019-04-20T18:53:43.310Z,14.68
2019-04-20T18:56:09.557Z,14.58
2019-04-20T18:58:37.611Z,14.47
2019-04-20T19:01:07.425Z,14.45
2019-04-20T19:03:40.646Z,13.91
2019-04-20T19:06:06.024Z,13.52
2019-04-20T19:08:39.483Z,13.32
2019-04-20T19:11:06.941Z,13.14
2019-04-20T19:13:36.721Z,13.10
2019-04-20T19:16:13.377Z,12.88
2019-04-20T19:21:07.017Z,12.65
2019-04-20T19:23:37.245Z,12.62
2019-04-20T19:26:09.589Z,12.44
2019-04-20T19:28:41.050Z,12.35
2019-04-20T19:33:57.559Z,12.10
2019-04-20T19:36:18.757Z,11.86
2019-04-20T19:38:45.583Z,11.80
2019-04-20T19:43:48.319Z,11.51
2019-04-20T19:48:49.434Z,11.27
2019-04-20T19:51:28.394Z,11.32
2019-04-20T19:56:28.133Z,11.10
2019-04-20T19:58:54.179Z,10.93
2019-04-20T20:01:06.758Z,10.79
2019-04-20T20:03:35.551Z,10.68
2019-04-20T20:06:03.915Z,10.56
2019-04-20T20:08:36.381Z,10.54
2019-04-20T20:11:03.630Z,10.42
2019-04-20T20:13:36.251Z,10.32
2019-04-20T20:16:07.352Z,10.18
2019-04-20T20:18:39.226Z,10.09
2019-04-20T20:21:08.684Z,10.00
2019-04-20T20:23:23.938Z,9.86
2019-04-20T20:25:53.194Z,9.81
2019-04-20T20:28:31.265Z,9.71
2019-04-20T20:31:02.174Z,9.57
2019-04-20T20:33:37.933Z,9.46
2019-04-20T20:35:55.504Z,9.41
2019-04-20T20:38:23.107Z,9.49
2019-04-20T20:40:56.387Z,9.50
2019-04-20T20:43:22.183Z,9.46
2019-04-20T20:45:49.702Z,9.31
2019-04-20T20:48:24.115Z,9.15
2019-04-20T20:50:56.126Z,9.05
2019-04-20T20:53:14.223Z,9.01
2019-04-20T20:55:40.894Z,9.06
2019-04-20T20:58:10.617Z,8.97
2019-04-20T21:00:41.795Z,8.97
2019-04-20T21:05:33.462Z,8.83
2019-04-20T21:08:01.656Z,8.80
2019-04-20T21:10:35.578Z,8.74
2019-04-20T21:13:03.019Z,8.83
2019-04-20T21:18:20.595Z,8.63
2019-04-20T21:20:50.575Z,8.57
2019-04-20T21:23:53.381Z,8.56
2019-04-20T21:26:18.026Z,8.53
2019-04-20T21:28:40.112Z,8.42
2019-04-20T21:31:13.704Z,8.32
2019-04-20T21:33:39.700Z,8.17
2019-04-20T21:36:05.062Z,7.99
2019-04-20T21:38:37.602Z,7.98
2019-04-20T21:41:08.808Z,8.22
2019-04-20T21:43:36.651Z,8.08
2019-04-20T21:46:03.253Z,8.05
2019-04-20T21:48:45.164Z,8.06
2019-04-20T21:51:13.993Z,7.94
2019-04-20T21:53:31.363Z,7.90
2019-04-20T21:55:55.230Z,7.84
2019-04-20T21:58:28.041Z,7.82
2019-04-20T22:01:05.052Z,7.72
2019-04-20T22:03:22.636Z,7.58
2019-04-20T22:05:50.561Z,7.61
2019-04-20T22:08:19.568Z,7.48
2019-04-20T22:10:47.240Z,7.34
2019-04-20T22:13:26.746Z,7.20
2019-04-20T22:15:56.737Z,7.15
2019-04-20T22:18:23.037Z,7.10
2019-04-20T22:20:57.676Z,7.03
2019-04-20T22:23:32.922Z,6.82
2019-04-20T22:25:58.322Z,6.77
2019-04-20T22:28:11.986Z,6.69
2019-04-20T22:30:40.172Z,6.64
2019-04-20T22:33:10.053Z,6.63
2019-04-20T22:35:44.553Z,6.60
2019-04-20T22:41:06.619Z,6.51
2019-04-20T22:43:35.167Z,6.58
2019-04-20T22:45:59.228Z,6.58
2019-04-20T22:48:27.535Z,6.53
2019-04-20T22:53:45.574Z,6.47
2019-04-20T22:56:22.818Z,6.38
2019-04-20T22:58:40.517Z,6.42
2019-04-20T23:01:01.020Z,6.21
2019-04-20T23:03:24.967Z,6.07
2019-04-20T23:05:54.365Z,5.94
2019-04-20T23:08:22.418Z,5.83
2019-04-20T23:10:49.848Z,5.71
2019-04-20T23:13:22.103Z,5.64
2019-04-20T23:15:53.118Z,5.66
2019-04-20T23:18:16.042Z,5.55
2019-04-20T23:20:44.267Z,5.47
2019-04-20T23:23:16.943Z,5.42
2019-04-20T23:28:18.103Z,5.37
2019-04-20T23:30:44.452Z,5.31
2019-04-20T23:35:49.898Z,5.32
2019-04-20T23:38:19.155Z,5.27
2019-04-20T23:40:43.743Z,5.32
2019-04-20T23:48:44.765Z,5.58
2019-04-20T23:53:56.511Z,5.41
2019-04-20T23:56:18.385Z,5.39
2019-04-20T23:58:49.594Z,5.22
